Terminal Aerodrome Forecast
Issued by NWS

Current Version | Previous Version | Text Only | Print | Product List | Glossary On
Versions: 1 2 3 4 5 6 7 8 9 10 11 12 13 14 15 16 17 18
000
FTUS41 KLWX 301135
TAFMTN
TAF
KMTN 301135Z 3012/3112 17006KT P6SM OVC080
     FM301700 27013G26KT P6SM SCT050
     FM310100 29009KT P6SM FEW050
     FM310400 26005KT P6SM SCT250
     FM310700 VRB03KT P6SM BKN050=

USA.gov is the U.S. government's official web portal to all federal, state and local government web resources and services.